Latest Weather Observations for Tasman Island

IDT60901

Issued at 1:11 pm EST Saturday 1 October 2016 (issued every 10 minutes, with the page automatically refreshed every 10 minutes)

About weather observations | Map of Hobart area stations | Latest observations for Hobart area | Other Formats
Station Details ID: 094155 Name: TASMAN ISLAND Lat: -43.24 Lon: 148.00 Height: 240.0 m
Data from the previous 72 hours. | See also: Recent months at Tasman Island
Date/Time
EST
Temp
°C
App
Temp
°C
Dew
Point
°C
Rel
Hum
%
Delta-T
°C
Wind Press
QNH
hPa
Press
MSL
hPa
Rain since
9am
mm
Dir  Spd
km/h
Gust
km/h
Spd
kts
Gust
kts
01/01:00pm 10.5 3.5 5.9 73 2.2 N 32 41 17 22 992.2 992.3 0.0
01/12:30pm 10.7 3.6 6.5 75 2.0 N 33 41 18 22 992.3 992.4 0.0
01/12:00pm 10.6 4.5 6.7 77 1.9 N 28 43 15 23 992.8 992.8 0.0
01/11:30am 10.8 5.5 6.9 77 1.9 N 24 32 13 17 993.0 993.0 0.0
01/11:00am 11.3 5.7 7.0 75 2.1 N 26 37 14 20 993.2 993.2 0.0
01/10:30am 11.3 4.3 6.8 74 2.2 N 33 43 18 23 993.4 993.4 0.0
01/10:00am 11.0 3.3 6.9 76 2.0 N 37 46 20 25 993.7 993.7 0.0
01/09:30am 11.0 3.1 6.0 71 2.4 N 37 48 20 26 993.6 993.7 0.0
01/09:00am 10.6 3.0 5.6 71 2.4 N 35 46 19 25 993.9 994.0 0.4
01/08:50am 10.8 2.7 5.1 68 2.6 N 37 56 20 30 993.9 994.0 0.4
01/08:30am 10.1 2.7 4.9 70 2.4 N 33 43 18 23 994.0 994.1 0.4
01/08:00am 9.8 2.7 5.4 74 2.0 NNE 32 39 17 21 994.2 994.3 0.4
01/07:30am 9.4 2.0 5.2 75 1.9 N 33 43 18 23 994.1 994.2 0.4
01/07:00am 9.7 2.9 5.1 73 2.1 N 30 37 16 20 994.1 994.2 0.4
01/06:30am 9.3 2.7 4.3 71 2.2 N 28 39 15 21 994.0 994.1 0.4
01/06:00am 8.8 2.6 4.4 74 2.0 NNE 26 35 14 19 993.8 993.9 0.4
01/05:30am 8.4 1.2 4.8 78 1.6 N 32 43 17 23 993.6 993.7 0.4
01/05:00am 8.7 0.1 4.5 75 1.9 N 39 50 21 27 993.4 993.5 0.4
01/04:30am 8.5 1.1 4.1 74 1.9 N 32 43 17 23 993.1 993.2 0.4
01/04:00am 8.8 2.7 4.8 76 1.8 NNE 26 37 14 20 993.0 993.1 0.4
01/03:30am 8.8 2.8 5.2 78 1.6 NNE 26 35 14 19 992.8 992.9 0.4
01/03:00am 8.9 3.2 5.1 77 1.7 NNE 24 32 13 17 992.8 992.9 0.4
01/02:30am 8.7 3.3 4.5 75 1.9 NNE 22 35 12 19 993.0 993.1 0.4
01/02:00am 9.1 2.0 3.7 69 2.4 NNE 30 39 16 21 992.9 993.0 0.4
01/01:30am 8.8 1.4 5.0 77 1.7 N 33 41 18 22 993.1 993.2 0.4
01/01:00am 9.1 1.6 4.7 74 2.0 N 33 44 18 24 993.4 993.5 0.4
01/12:30am 9.3 2.3 4.3 71 2.2 NNE 30 41 16 22 993.6 993.7 0.4
01/12:00am 9.4 1.9 4.2 70 2.3 N 33 43 18 23 993.6 993.7 0.4
 
Date/Time
EST
Temp
°C
App
Temp
°C
Dew
Point
°C
Rel
Hum
%
Delta-T
°C
Wind Press
QNH
hPa
Press
MSL
hPa
Rain since
9am
mm
Dir  Spd
km/h
Gust
km/h
Spd
kts
Gust
kts
30/11:30pm 9.7 1.0 4.1 68 2.5 N 39 52 21 28 993.5 993.6 0.4
30/11:00pm 10.0 1.0 4.4 68 2.6 N 41 54 22 29 993.5 993.6 0.4
30/10:30pm 10.3 2.5 6.6 78 1.8 NNE 37 50 20 27 993.3 993.4 0.4
30/10:00pm 10.4 3.1 7.1 80 1.6 NNE 35 48 19 26 993.5 993.6 0.4
30/09:30pm 10.5 4.0 8.9 90 0.8 NNE 33 48 18 26 993.6 993.7 0.4
30/09:02pm 10.9 2.3 8.8 87 1.1 NNE 44 63 24 34 993.2 993.3 0.4
30/09:00pm 10.9 1.9 8.8 87 1.1 NNE 46 63 25 34 993.2 993.3 0.4
30/08:30pm 10.9 1.8 8.5 85 1.2 NNE 46 63 25 34 993.1 993.2 0.4
30/08:00pm 11.0 1.9 8.6 85 1.2 NNE 46 63 25 34 992.9 993.0 0.4
30/07:30pm 11.3 2.1 8.2 81 1.5 NNE 46 65 25 35 992.5 992.7 0.4
30/07:00pm 11.2 4.5 8.2 82 1.5 NNE 33 54 18 29 991.9 992.1 0.4
30/06:30pm 11.2 5.1 8.4 83 1.4 NNE 30 59 16 32 991.5 991.6 0.4
30/06:04pm 11.3 5.7 8.7 84 1.3 NNE 28 54 15 29 991.1 991.2 0.4
30/06:00pm 11.3 6.1 8.7 84 1.3 NNE 26 50 14 27 991.0 991.1 0.4
30/05:40pm 11.4 5.9 9.0 85 1.2 NNE 28 48 15 26 990.7 990.8 0.4
30/05:30pm 11.5 6.3 8.9 84 1.3 NNE 26 65 14 35 990.6 990.7 0.4
30/05:26pm 11.6 6.1 9.0 84 1.3 NNE 28 65 15 35 990.5 990.6 0.4
30/05:00pm 11.7 6.8 8.4 80 1.7 NE 24 50 13 27 990.0 990.1 0.4
30/04:38pm 11.9 6.2 8.4 79 1.8 NNE 28 50 15 27 989.9 990.0 0.4
30/04:30pm 11.9 7.2 9.1 83 1.4 NNE 24 43 13 23 989.9 990.0 0.4
30/04:00pm 11.9 5.2 7.2 73 2.3 NNE 32 46 17 25 989.4 989.5 0.4
30/03:30pm 12.1 4.3 6.8 70 2.6 NNE 37 54 20 29 989.0 989.1 0.4
30/03:25pm 12.0 4.6 6.7 70 2.6 NNE 35 54 19 29 989.0 989.1 0.4
30/03:00pm 12.1 4.1 7.6 74 2.2 NNE 39 54 21 29 988.4 988.5 0.4
30/02:32pm 11.7 5.3 8.4 80 1.6 NNE 32 50 17 27 988.1 988.2 0.4
30/02:30pm 11.7 5.3 8.4 80 1.6 NNE 32 50 17 27 988.0 988.1 0.4
30/02:20pm 11.3 4.6 8.2 81 1.5 NNE 33 56 18 30 988.0 988.1 0.4
30/02:00pm 11.3 2.7 8.3 82 1.5 NNE 43 56 23 30 988.0 988.1 0.4
30/01:30pm 10.6 4.7 9.2 91 0.7 NNE 30 50 16 27 987.9 988.0 0.4
30/01:28pm 10.7 5.2 9.3 91 0.7 NNE 28 48 15 26 987.9 988.0 0.4
30/01:00pm 10.9 6.4 10.0 94 0.5 NNE 24 44 13 24 987.7 987.8 0.4
30/12:30pm 9.8 7.1 9.0 95 0.4 NE 13 35 7 19 987.9 988.0 0.4
30/12:00pm 10.4 6.7 9.5 94 0.5 ESE 19 41 10 22 988.1 988.2 0.0
30/11:32am 10.6 5.6 9.7 94 0.5 ESE 26 69 14 37 987.6 987.7 0.0
30/11:30am 10.6 6.4 9.7 94 0.5 SE 22 69 12 37 987.7 987.8 0.0
30/11:00am 11.2 5.3 10.3 94 0.5 ESE 32 74 17 40 988.0 988.1 0.0
30/10:30am 11.4 3.8 10.5 94 0.5 ESE 41 93 22 50 987.8 987.9 0.0
30/10:00am 11.4 5.0 10.6 95 0.4 ESE 35 82 19 44 988.5 988.6 0.0
30/09:30am 11.3 3.2 10.7 96 0.3 ESE 44 83 24 45 988.5 988.6 0.0
30/09:00am 11.1 3.1 10.5 96 0.3 ESE 43 95 23 51 988.8 988.9 5.8
30/08:30am 11.0 3.8 10.4 96 0.3 ESE 39 91 21 49 988.8 988.9 5.2
30/08:00am 11.0 5.1 10.4 96 0.3 SE 32 95 17 51 988.7 988.8 4.0
30/07:44am 10.8 5.6 10.2 96 0.3 SE 28 82 15 44 989.0 989.1 3.8
30/07:30am 10.7 6.6 10.1 96 0.3 SSE 22 74 12 40 989.1 989.2 3.6
30/07:00am 10.7 6.9 9.9 95 0.4 SSE 20 63 11 34 990.2 990.3 2.8
30/06:30am 10.8 4.6 10.0 95 0.4 ESE 33 72 18 39 991.0 991.1 1.8
30/06:00am 11.1 3.8 10.2 94 0.5 ESE 39 76 21 41 991.1 991.2 1.2
30/05:30am 11.1 3.8 10.2 94 0.5 ESE 39 72 21 39 991.3 991.4 1.0
30/05:00am 11.2 4.2 10.1 93 0.6 E 37 70 20 38 991.3 991.4 0.8
30/04:30am 11.3 4.0 10.2 93 0.6 E 39 72 21 39 991.2 991.3 0.8
30/04:00am 11.3 4.4 10.2 93 0.6 E 37 82 20 44 991.3 991.4 0.8
30/03:30am 11.4 4.1 10.3 93 0.6 E 39 85 21 46 991.5 991.6 0.8
30/03:00am 11.4 5.2 10.0 91 0.7 E 33 83 18 45 991.7 991.9 0.8
30/02:30am 11.5 5.3 10.1 91 0.7 E 33 80 18 43 991.9 992.1 0.8
30/02:00am 11.4 4.8 10.0 91 0.7 E 35 72 19 39 992.2 992.4 0.8
30/01:30am 11.4 5.4 10.0 91 0.7 E 32 69 17 37 993.0 993.1 0.8
30/01:00am 11.4 5.2 10.1 92 0.7 E 33 78 18 42 993.2 993.3 0.8
30/12:30am 11.3 5.3 10.2 93 0.6 E 32 70 17 38 993.5 993.6 0.8
30/12:02am 11.1 5.9 10.2 94 0.5 E 28 65 15 35 993.7 993.8 0.6
30/12:00am 11.1 6.3 10.2 94 0.5 E 26 63 14 34 993.7 993.8 0.6
 
Date/Time
EST
Temp
°C
App
Temp
°C
Dew
Point
°C
Rel
Hum
%
Delta-T
°C
Wind Press
QNH
hPa
Press
MSL
hPa
Rain since
9am
mm
Dir  Spd
km/h
Gust
km/h
Spd
kts
Gust
kts
29/11:30pm 10.9 5.2 9.7 92 0.6 E 30 70 16 38 993.9 994.0 0.6
29/11:00pm 11.2 5.5 9.8 91 0.7 ENE 30 61 16 33 994.2 994.3 0.4
29/10:30pm 11.1 3.7 9.7 91 0.7 ENE 39 83 21 45 994.6 994.7 0.4
29/10:00pm 11.1 5.3 9.5 90 0.8 ENE 30 72 16 39 994.6 994.7 0.4
29/09:30pm 11.3 2.1 9.6 89 0.9 ENE 48 85 26 46 995.0 995.1 0.0
29/09:00pm 11.4 3.4 9.1 86 1.2 ENE 41 78 22 42 995.0 995.1 0.0
29/08:30pm 11.4 3.4 9.0 85 1.2 ENE 41 83 22 45 994.8 994.9 0.0
29/08:00pm 11.4 2.9 9.1 86 1.2 E 44 93 24 50 994.9 995.0 0.0
29/07:56pm 11.4 3.0 9.1 86 1.2 E 43 93 23 50 995.0 995.1 0.0
29/07:52pm 11.4 4.2 9.1 86 1.2 E 37 93 20 50 995.0 995.1 0.0
29/07:30pm 11.5 6.4 9.1 85 1.2 ENE 26 67 14 36 995.2 995.3 0.0
29/07:00pm 11.6 6.8 8.8 83 1.4 E 24 74 13 40 995.6 995.8 0.0
29/06:50pm 11.6 6.7 8.6 82 1.5 NE 24 56 13 30 995.7 995.9 0.0
29/06:30pm 11.7 7.2 8.6 81 1.6 ENE 22 69 12 37 995.6 995.8 0.0
29/06:13pm 11.6 7.1 8.6 82 1.5 NE 22 52 12 28 995.5 995.7 0.0
29/06:00pm 11.6 7.1 8.5 81 1.6 NE 22 65 12 35 995.4 995.6 0.0
29/05:46pm 11.6 7.1 8.6 82 1.5 NE 22 61 12 33 995.2 995.3 0.0
29/05:30pm 11.6 7.1 8.5 81 1.6 ENE 22 69 12 37 995.0 995.1 0.0
29/05:01pm 11.5 6.6 8.5 82 1.5 ENE 24 61 13 33 995.0 995.1 0.0
29/05:00pm 11.5 7.0 8.5 82 1.5 NE 22 57 12 31 994.9 995.0 0.0
29/04:41pm 11.5 6.7 8.9 84 1.3 NNE 24 91 13 49 995.1 995.2 0.0
29/04:40pm 11.5 7.1 8.9 84 1.3 N 22 70 12 38 994.9 995.0 0.0
29/04:39pm 11.5 7.1 8.9 84 1.3 N 22 70 12 38 994.9 995.0 0.0
29/04:30pm 11.6 6.8 9.0 84 1.3 ENE 24 70 13 38 994.8 994.9 0.0
29/04:03pm 11.6 6.9 9.2 85 1.2 NE 24 63 13 34 994.9 995.0 0.0
29/04:00pm 11.6 7.2 9.0 84 1.3 NE 22 63 12 34 994.8 994.9 0.0
29/03:46pm 11.7 7.0 9.1 84 1.3 NE 24 67 13 36 994.8 994.9 0.0
29/03:30pm 11.7 7.0 9.1 84 1.3 NE 24 69 13 37 994.9 995.0 0.0
29/03:20pm 11.7 7.0 9.1 84 1.3 NNE 24 76 13 41 994.9 995.0 0.0
29/03:00pm 11.7 7.9 9.1 84 1.3 NNE 19 54 10 29 994.8 994.9 0.0
29/02:30pm 11.7 7.4 9.3 85 1.2 NE 22 76 12 41 995.2 995.3 0.0
29/02:17pm 11.7 7.3 9.1 84 1.3 NE 22 57 12 31 995.2 995.3 0.0
29/02:00pm 11.7 7.8 9.3 85 1.2 NNE 20 74 11 40 995.4 995.6 0.0
29/01:32pm 11.8 6.7 9.2 84 1.3 NE 26 87 14 47 995.6 995.8 0.0
29/01:30pm 11.8 7.1 9.2 84 1.3 NE 24 69 13 37 995.4 995.6 0.0
29/01:03pm 11.9 7.3 9.5 85 1.2 NE 24 61 13 33 995.8 996.0 0.0
29/01:00pm 11.8 7.1 9.4 85 1.2 NE 24 74 13 40 995.7 995.9 0.0
29/12:39pm 11.9 7.3 9.6 86 1.2 NE 24 69 13 37 996.2 996.4 0.0
29/12:30pm 12.0 7.8 9.6 85 1.2 NE 22 74 12 40 996.2 996.4 0.0
29/12:00pm 12.0 6.3 9.7 86 1.2 NE 30 70 16 38 996.7 996.9 0.0
29/11:30am 12.1 6.4 9.8 86 1.2 NNE 30 83 16 45 996.9 997.1 0.0
29/11:00am 12.1 5.8 9.8 86 1.2 NNE 33 95 18 51 997.1 997.2 0.0
29/10:30am 12.0 3.7 9.9 87 1.1 NE 44 95 24 51 997.5 997.6 0.0
29/10:00am 12.3 4.0 10.0 86 1.2 NNE 44 93 24 50 997.3 997.4 0.0
29/09:30am 12.1 3.6 10.5 90 0.8 NE 46 98 25 53 997.8 997.9 0.0
29/09:00am 12.1 4.1 10.5 90 0.8 NNE 43 95 23 51 997.7 997.8 0.0
29/08:30am 11.9 5.0 10.3 90 0.8 NNE 37 82 20 44 998.2 998.3 0.0
29/08:00am 12.0 5.1 10.4 90 0.8 NNE 37 76 20 41 998.5 998.6 0.0
29/07:30am 11.9 5.3 10.0 88 1.0 NNE 35 74 19 40 998.8 999.0 0.0
29/07:00am 11.9 3.2 10.0 88 1.0 NE 46 67 25 36 999.5 999.7 0.0
29/06:30am 11.8 3.7 10.2 90 0.8 NE 43 72 23 39 999.8 1000.0 0.0
29/06:00am 11.7 3.4 10.1 90 0.8 NE 44 78 24 42 999.9 1000.1 0.0
29/05:30am 11.6 4.2 10.0 90 0.8 NE 39 69 21 37 999.8 1000.0 0.0
29/05:00am 11.3 3.9 9.9 91 0.7 NE 39 76 21 41 1000.2 1000.4 0.0
29/04:30am 11.2 3.7 9.6 90 0.8 NE 39 59 21 32 1000.6 1000.8 0.0
29/04:00am 11.1 4.7 9.5 90 0.8 NE 33 52 18 28 1001.2 1001.4 0.0
29/03:40am 10.8 5.1 9.7 93 0.6 NE 30 50 16 27 1001.4 1001.5 0.0
29/03:30am 10.6 6.0 9.5 93 0.6 NE 24 41 13 22 1001.6 1001.7 0.0
29/03:00am 10.6 4.4 9.2 91 0.7 NNE 32 52 17 28 1002.0 1002.1 0.0
29/02:30am 10.5 1.4 8.4 87 1.0 NNE 46 59 25 32 1002.4 1002.6 0.0
29/02:00am 10.4 1.2 8.2 86 1.1 NNE 46 63 25 34 1003.0 1003.2 0.0
29/01:30am 10.5 2.1 9.1 91 0.7 NNE 43 57 23 31 1003.3 1003.5 0.0
29/01:00am 10.5 2.3 8.3 86 1.1 NNE 41 57 22 31 1003.5 1003.7 0.0
29/12:53am 10.5 2.6 7.7 83 1.4 NNE 39 57 21 31 1003.6 1003.8 0.0
29/12:30am 10.6 1.3 5.8 72 2.2 NNE 44 59 24 32 1003.5 1003.7 0.0
29/12:23am 10.5 2.2 7.9 84 1.3 NNE 41 59 22 32 1003.6 1003.8 0.0
29/12:00am 10.5 1.8 8.4 87 1.0 NNE 44 57 24 31 1003.7 1003.9 0.0
 
Date/Time
EST
Temp
°C
App
Temp
°C
Dew
Point
°C
Rel
Hum
%
Delta-T
°C
Wind Press
QNH
hPa
Press
MSL
hPa
Rain since
9am
mm
Dir  Spd
km/h
Gust
km/h
Spd
kts
Gust
kts
28/11:30pm 10.8 1.7 8.4 85 1.2 NNE 46 67 25 36 1004.1 1004.3 0.0
28/11:13pm 10.9 4.5 8.7 86 1.1 NNE 32 70 17 38 1004.4 1004.6 0.0
28/11:00pm 10.9 5.4 9.2 89 0.9 NNE 28 48 15 26 1004.5 1004.7 0.0
28/10:58pm 10.9 5.4 9.2 89 0.9 NNE 28 48 15 26 1004.6 1004.8 0.0
28/10:30pm 11.1 6.1 9.5 90 0.8 NE 26 52 14 28 1004.7 1004.9 0.0
28/10:04pm 11.1 5.7 9.4 89 0.9 NE 28 46 15 25 1005.1 1005.3 0.0
28/10:00pm 11.1 6.1 9.4 89 0.9 NE 26 44 14 24 1005.1 1005.3 0.0
28/09:45pm 11.1 5.6 9.2 88 1.0 NE 28 50 15 27 1005.4 1005.6 0.0
28/09:30pm 11.1 5.9 8.8 86 1.2 NE 26 46 14 25 1005.8 1006.0 0.0
28/09:13pm 11.0 5.0 8.6 85 1.2 NE 30 54 16 29 1006.0 1006.2 0.0
28/09:00pm 10.9 6.1 8.7 86 1.1 NE 24 48 13 26 1006.1 1006.3 0.0
28/08:30pm 10.6 5.8 8.7 88 0.9 NE 24 48 13 26 1006.0 1006.2 0.0
28/08:00pm 10.6 7.3 8.2 85 1.2 NNE 15 43 8 23 1006.1 1006.3 0.0
28/07:30pm 10.4 7.0 7.5 82 1.4 NNE 15 35 8 19 1006.2 1006.4 0.0
28/07:00pm 10.4 6.5 6.9 79 1.7 NNE 17 39 9 21 1006.3 1006.5 0.0
28/06:30pm 10.3 4.9 6.5 77 1.8 NE 24 50 13 27 1006.5 1006.7 0.0
28/06:00pm 10.3 5.1 5.5 72 2.2 NE 22 43 12 23 1006.1 1006.3 0.0
28/05:30pm 10.3 6.5 4.0 65 2.8 NNE 13 39 7 21 1005.9 1006.1 0.0
28/05:00pm 10.2 6.8 3.9 65 2.8 N 11 35 6 19 1005.8 1006.0 0.0
28/04:30pm 10.5 7.3 3.3 61 3.2 N 9 26 5 14 1006.1 1006.3 0.0
28/04:00pm 10.9 8.2 3.5 60 3.3 NE 7 17 4 9 1006.4 1006.6 0.0
28/03:30pm 10.9 8.1 3.2 59 3.4 NE 7 22 4 12 1006.7 1006.9 0.0
28/03:00pm 10.9 7.0 3.2 59 3.4 E 13 22 7 12 1007.1 1007.3 0.0
28/02:30pm 11.4 8.1 2.4 54 3.9 E 9 19 5 10 1007.4 1007.6 0.0
28/02:00pm 12.2 9.4 3.4 55 4.0 ENE 7 17 4 9 1007.8 1008.0 0.0
28/01:30pm 12.4 9.8 4.1 57 3.8 E 7 13 4 7 1008.1 1008.3 0.0

Latest Capital City Observations: Canberra | Sydney | Melbourne | Brisbane | Adelaide | Perth | Hobart | Darwin

Other Formats:

Comma delimited format used in spreadsheet applications
http://www.bom.gov.au/fwo/IDT60901/IDT60901.95986.axf

JavaScript Object Notation format (JSON) in row-major order
http://www.bom.gov.au/fwo/IDT60901/IDT60901.95986.json